createdAt,value
2023-01-26T06:20:01.211Z,0.1
2023-01-26T06:22:00.958Z,0.2
2023-01-26T06:23:00.956Z,0.3
2023-01-26T06:25:01.206Z,0.4
2023-01-26T06:26:00.955Z,0.5
2023-01-26T06:28:00.959Z,0.6
2023-01-26T06:29:00.957Z,0.7
2023-01-26T06:30:01.832Z,0.8
2023-01-26T06:31:01.064Z,0.9
2023-01-26T06:32:00.962Z,1.1
2023-01-26T06:33:00.960Z,1.2
2023-01-26T06:34:01.290Z,1.3
2023-01-26T06:35:02.262Z,1.5
2023-01-26T06:36:00.986Z,1.6
2023-01-26T06:37:00.967Z,1.9
2023-01-26T06:38:01.992Z,2.1
2023-01-26T06:39:01.117Z,2.4
2023-01-26T06:40:01.949Z,2.8
2023-01-26T06:41:01.010Z,3.2
2023-01-26T06:42:00.959Z,3.9
2023-01-26T06:43:00.960Z,4.7
2023-01-26T06:44:00.973Z,5.4
2023-01-26T06:45:06.840Z,6.4
2023-01-26T06:46:01.064Z,7.4
2023-01-26T06:47:00.985Z,8.9
2023-01-26T06:48:00.982Z,10.5
2023-01-26T06:49:01.212Z,12.0
2023-01-26T06:50:01.177Z,14.3
2023-01-26T06:51:01.113Z,16.5
2023-01-26T06:52:01.054Z,19.7
2023-01-26T06:53:01.030Z,22.8
2023-01-26T06:54:01.048Z,25.9
2023-01-26T06:55:02.024Z,30.4
2023-01-26T06:56:01.088Z,34.9
2023-01-26T06:57:01.031Z,41.3
2023-01-26T06:58:01.033Z,47.8
2023-01-26T06:59:01.032Z,54.3
2023-01-26T07:00:09.700Z,63.1
2023-01-26T07:01:01.129Z,72.0
2023-01-26T07:02:01.116Z,85.4
2023-01-26T07:03:01.036Z,98.8
2023-01-26T07:04:01.036Z,112.2
2023-01-26T07:05:01.318Z,130.1
2023-01-26T07:06:01.115Z,148.1
2023-01-26T07:07:01.035Z,172.1
2023-01-26T07:08:01.062Z,196.2
2023-01-26T07:09:02.069Z,220.3
2023-01-26T07:10:01.385Z,252.9
2023-01-26T07:11:01.143Z,285.6
2023-01-26T07:12:01.108Z,328.0
2023-01-26T07:13:01.092Z,370.4
2023-01-26T07:14:01.068Z,412.8
2023-01-26T07:15:03.428Z,464.5
2023-01-26T07:16:01.413Z,516.1
2023-01-26T07:17:01.035Z,573.7
2023-01-26T07:18:01.066Z,631.3
2023-01-26T07:19:01.003Z,688.9
2023-01-26T07:20:01.315Z,758.5
2023-01-26T07:21:00.982Z,828.1
2023-01-26T07:22:01.029Z,913.4
2023-01-26T07:23:00.978Z,998.7
2023-01-26T07:24:01.024Z,1083.9
2023-01-26T07:25:01.203Z,1174.8
2023-01-26T07:26:00.978Z,1265.7
2023-01-26T07:27:01.022Z,1364.1
2023-01-26T07:28:00.979Z,1462.5
2023-01-26T07:29:00.973Z,1560.9
2023-01-26T07:30:02.056Z,1662.9
2023-01-26T07:31:01.026Z,1764.9
2023-01-26T07:32:01.084Z,1878.5
2023-01-26T07:33:01.038Z,1992.2
2023-01-26T07:34:01.042Z,2105.9
2023-01-26T07:35:16.075Z,2234.3
2023-01-26T07:36:02.108Z,2362.8
2023-01-26T07:37:01.024Z,2492.2
2023-01-26T07:38:00.982Z,2621.6
2023-01-26T09:57:01.094Z,34179.7
2023-01-26T09:58:01.081Z,34209.5
2023-01-26T09:59:01.095Z,34227.4
2023-01-26T10:01:01.345Z,33562.7
2023-01-26T10:02:01.129Z,34249.8
2023-01-26T10:03:06.092Z,34784.1
2023-01-26T10:04:01.127Z,35211.6
2023-01-26T10:05:01.376Z,35110.4
2023-01-26T10:06:01.092Z,35026.0
2023-01-26T10:07:01.229Z,34494.0
2023-01-26T10:08:01.088Z,34038.0
2023-01-26T10:09:01.108Z,33642.8
2023-01-26T10:11:01.127Z,32863.9
2023-01-26T10:12:01.119Z,32462.0
2023-01-26T10:13:01.098Z,32060.1
2023-01-26T10:14:01.099Z,31658.3
2023-01-26T10:15:02.853Z,31521.1
2023-01-26T10:16:01.126Z,31383.9
2023-01-26T10:17:01.133Z,30651.7
2023-01-26T10:18:01.096Z,29919.6
2023-01-26T10:19:01.103Z,29187.5
2023-01-26T10:20:01.322Z,28843.5
2023-01-26T10:21:01.101Z,28499.6
2023-01-26T10:22:01.122Z,29005.3
2023-01-26T10:23:01.102Z,29510.9
2023-01-26T10:24:06.157Z,30016.6
2023-01-26T10:25:16.126Z,30591.8
2023-01-26T10:26:01.376Z,31167.0
2023-01-26T10:27:01.165Z,31514.6
2023-01-26T10:28:01.355Z,31862.2
2023-01-26T10:45:01.945Z,49690.0
2023-01-26T10:47:00.581Z,48761.3
2023-01-26T10:48:00.546Z,48297.0
2023-01-26T10:49:00.541Z,48018.4
2023-01-26T10:50:01.787Z,47949.5
2023-01-26T10:51:02.364Z,47900.3
2023-01-26T10:52:00.599Z,48585.8
2023-01-26T10:53:00.563Z,49118.9
2023-01-26T10:54:00.549Z,49545.4
2023-01-26T10:55:02.485Z,50028.5
2023-01-26T10:56:00.559Z,50431.2
2023-01-26T10:57:00.578Z,50654.8
2023-01-26T10:58:00.551Z,50846.4
2023-01-26T10:59:00.540Z,51012.5
2023-01-26T11:00:01.897Z,51621.5
2023-01-26T11:01:00.574Z,52230.4
2023-01-26T11:02:00.585Z,53472.5
2023-01-26T11:03:00.590Z,54714.5
2023-01-26T11:04:00.553Z,55956.6
2023-01-26T11:05:01.100Z,57151.9
2023-01-26T11:06:00.804Z,58347.3
2023-01-26T11:07:00.579Z,59157.3
2023-01-26T11:08:00.635Z,59967.4
2023-01-26T11:09:00.551Z,60777.5
2023-01-26T11:10:00.737Z,61450.4
2023-01-26T11:11:00.551Z,62123.3
2023-01-26T11:12:00.587Z,62177.7
2023-01-26T11:13:00.581Z,62232.1
2023-01-26T11:14:00.550Z,62286.5
2023-01-26T11:15:01.907Z,62733.9
2023-01-26T11:16:00.646Z,63181.3
2023-01-26T11:17:00.617Z,63042.1
2023-01-26T11:18:00.550Z,62902.8
2023-01-26T11:19:00.550Z,62763.5
2023-01-26T11:20:00.772Z,62379.3
2023-01-26T11:21:00.574Z,61995.1
2023-01-26T11:22:00.885Z,61341.5
2023-01-26T11:23:00.552Z,60687.9
2023-01-26T11:24:00.565Z,60034.3
2023-01-26T11:25:01.855Z,60073.1
2023-01-26T11:26:00.548Z,60111.8
2023-01-26T11:27:00.584Z,60240.7
2023-01-26T11:28:00.594Z,60369.5
2023-01-26T11:29:00.822Z,60498.4
2023-01-26T11:30:01.462Z,59572.3
2023-01-26T11:31:00.669Z,58646.3
2023-01-26T11:32:00.583Z,57987.0
2023-01-26T11:33:00.581Z,57327.7
2023-01-26T11:34:00.561Z,56668.5
2023-01-26T11:35:00.968Z,56586.2
2023-01-26T11:36:00.556Z,56503.9
2023-01-26T11:37:00.601Z,57106.9
2023-01-26T11:38:00.565Z,57709.9
2023-01-26T11:39:05.826Z,58312.9
2023-01-26T11:42:00.612Z,58942.8
2023-01-26T11:43:00.557Z,59572.7
2023-01-26T11:44:00.565Z,60202.5
2023-01-26T11:46:01.629Z,62054.7
2023-01-26T11:47:00.591Z,62853.2
2023-01-26T11:48:00.845Z,63651.7
2023-01-26T11:49:00.586Z,64450.3
2023-01-26T11:50:00.903Z,64916.7
2023-01-26T11:51:00.899Z,65383.2
2023-01-26T11:52:00.609Z,65433.8
2023-01-26T11:53:00.562Z,65484.4
2023-01-26T11:54:00.570Z,65535.0
2023-01-26T11:57:00.805Z,65381.7
2023-01-26T11:58:00.569Z,65228.5
2023-01-26T11:59:00.571Z,65075.2
2023-01-26T12:00:02.740Z,63829.2
2023-01-26T12:01:00.587Z,62583.2
2023-01-26T12:02:02.058Z,61014.7
2023-01-26T12:03:00.578Z,59446.3
2023-01-26T12:04:00.656Z,57877.8
2023-01-26T12:07:00.931Z,57496.4
2023-01-26T12:08:00.576Z,57115.0
2023-01-26T12:09:00.572Z,56733.6
2023-01-26T12:12:00.786Z,56886.9
2023-01-26T12:13:00.872Z,57040.1
2023-01-26T12:14:00.566Z,57193.4
2023-01-26T12:15:01.576Z,58439.4
2023-01-26T12:16:00.563Z,59685.4
2023-01-26T12:17:15.837Z,61253.9
2023-01-26T12:18:00.551Z,62822.3
2023-01-26T12:19:10.549Z,64390.8
2023-01-26T12:20:00.580Z,64299.7
2023-01-26T12:21:00.574Z,64208.5
2023-01-26T12:22:01.648Z,64433.1
2023-01-26T12:23:00.597Z,64657.6
2023-01-26T12:24:00.820Z,64882.1
2023-01-26T12:25:20.876Z,64789.9
2023-01-26T12:26:00.641Z,64697.7
2023-01-26T12:27:00.932Z,64487.7
2023-01-26T12:28:00.600Z,64277.6
2023-01-26T12:29:00.571Z,64067.5
2023-01-26T12:30:02.345Z,63800.7
2023-01-26T12:31:00.693Z,63533.9
2023-01-26T12:32:01.624Z,62973.7
2023-01-26T12:33:00.596Z,62413.5
2023-01-26T12:34:00.565Z,61853.3
2023-01-26T12:35:00.628Z,61944.5
2023-01-26T12:36:00.705Z,62035.6
2023-01-26T12:37:00.980Z,62192.5
2023-01-26T12:38:12.310Z,62349.3
2023-01-26T12:39:00.595Z,62506.2
2023-01-26T12:40:01.501Z,62598.4
2023-01-26T12:41:00.641Z,62690.6
2023-01-26T12:42:00.956Z,62900.7
2023-01-26T12:43:00.609Z,63110.7
2023-01-26T12:44:00.571Z,63320.8
2023-01-26T12:46:00.931Z,63854.4
2023-01-26T12:47:01.682Z,63532.7
2023-01-26T12:48:00.656Z,63210.9
2023-01-26T12:49:00.586Z,62889.2
2023-01-26T12:50:00.672Z,61844.1
2023-01-26T12:51:00.860Z,60799.1
2023-01-26T12:52:00.791Z,60196.7
2023-01-26T12:53:00.728Z,59594.3
2023-01-26T12:54:00.599Z,58991.9
2023-01-26T12:55:00.639Z,58367.7
2023-01-26T12:56:00.864Z,57743.5
2023-01-26T12:57:00.784Z,56595.1
2023-01-26T12:58:00.620Z,55446.7
2023-01-26T12:59:00.578Z,54298.3
2023-01-26T13:00:01.210Z,54110.1
2023-01-26T13:01:00.691Z,53922.0
2023-01-26T13:02:02.275Z,54803.9
2023-01-26T13:03:00.638Z,55685.9
2023-01-26T13:04:00.582Z,56567.8
2023-01-26T13:05:01.329Z,57612.9
2023-01-26T13:06:00.590Z,58657.9
2023-01-26T13:07:00.795Z,59260.3
2023-01-26T13:08:00.866Z,59862.7
2023-01-26T13:09:00.673Z,60465.1
2023-01-26T13:10:00.591Z,61089.3
2023-01-26T13:11:00.606Z,61713.5
2023-01-26T13:12:06.118Z,62861.9
2023-01-26T13:13:00.902Z,64010.3
2023-01-26T13:14:00.582Z,65158.7
2023-01-26T13:15:06.561Z,65346.9
2023-01-26T13:16:00.618Z,65535.0
2023-01-26T13:22:00.600Z,65516.9
2023-01-26T13:23:00.600Z,65498.9
2023-01-26T13:24:00.659Z,65480.8
2023-01-26T13:30:01.516Z,65480.8
2023-01-26T13:32:00.590Z,64794.9
2023-01-26T13:33:00.606Z,64108.9
2023-01-26T13:34:00.616Z,63423.0
2023-01-26T13:37:00.933Z,61951.5
2023-01-26T13:38:00.589Z,60480.1
2023-01-26T13:39:00.901Z,59008.6
2023-01-26T13:40:01.033Z,57390.7
2023-01-26T13:41:00.605Z,55772.7
2023-01-26T13:42:01.106Z,54148.9
2023-01-26T13:43:00.601Z,52525.0
2023-01-26T13:44:00.629Z,50901.1
2023-01-26T13:45:01.525Z,49505.2
2023-01-26T13:46:00.624Z,48109.3
2023-01-26T13:47:01.074Z,48795.2
2023-01-26T13:48:00.593Z,49481.1
2023-01-26T13:49:00.637Z,50167.1
2023-01-26T13:50:00.619Z,49318.2
2023-01-26T13:51:00.597Z,48469.3
2023-01-26T13:52:06.073Z,48409.3
2023-01-26T13:53:00.611Z,48349.3
2023-01-26T13:54:01.737Z,48289.3
2023-01-26T13:55:00.618Z,48783.3
2023-01-26T13:56:00.602Z,49277.2
2023-01-26T13:57:00.834Z,49318.5
2023-01-26T13:58:00.594Z,49359.7
2023-01-26T13:59:00.639Z,49401.0
2023-01-26T14:00:02.753Z,49524.8
2023-01-26T14:01:00.600Z,49648.6
2023-01-26T14:05:15.709Z,50215.5
2023-01-26T14:06:00.818Z,50782.5
2023-01-26T14:07:00.603Z,52332.0
2023-01-26T14:08:00.602Z,53881.5
2023-01-26T14:27:00.644Z,32985.7
2023-01-26T14:28:00.369Z,32631.0
2023-01-26T14:29:00.369Z,32418.2
2023-01-26T14:30:01.428Z,31743.3
2023-01-26T14:31:00.434Z,31261.3
2023-01-26T14:32:00.358Z,30885.9
2023-01-26T14:33:00.360Z,30593.9
2023-01-26T14:34:00.366Z,30360.3
2023-01-26T14:35:01.109Z,30146.5
2023-01-26T14:36:00.366Z,29968.3
2023-01-26T14:37:00.365Z,29719.0
2023-01-26T14:38:00.427Z,29505.4
2023-01-26T14:39:00.362Z,29320.2
2023-01-26T14:40:00.825Z,28809.7
2023-01-26T14:41:00.395Z,28299.1
2023-01-26T14:42:00.365Z,27848.9
2023-01-26T14:43:00.369Z,27398.6
2023-01-26T14:44:01.395Z,26948.3
2023-01-26T14:46:00.662Z,26340.1
2023-01-26T14:47:00.366Z,26001.7
2023-01-26T14:48:00.387Z,25663.4
2023-01-26T14:49:00.365Z,25325.1
2023-01-26T14:50:00.621Z,24936.3
2023-01-26T14:51:00.374Z,24547.6
2023-01-26T14:52:00.367Z,24182.7
2023-01-26T14:53:00.366Z,23817.7
2023-01-26T14:54:00.636Z,23452.8
2023-01-26T14:55:01.825Z,23079.1
2023-01-26T14:56:00.370Z,22705.3
2023-01-26T14:57:00.410Z,22364.3
2023-01-26T14:58:00.367Z,22023.2
2023-01-26T14:59:05.374Z,21682.1
2023-01-26T15:00:01.869Z,21357.2
2023-01-26T15:01:00.398Z,21032.3
2023-01-26T15:02:00.647Z,20686.3
2023-01-26T15:03:00.372Z,20340.3
2023-01-26T15:04:00.377Z,19994.3
2023-01-26T15:05:00.584Z,19655.5
2023-01-26T15:06:00.367Z,19316.8
2023-01-26T15:07:00.635Z,18981.3
2023-01-26T15:08:00.370Z,18645.7
2023-01-26T15:09:01.490Z,18310.2
2023-01-26T15:11:00.383Z,17630.6
2023-01-26T15:12:00.382Z,17286.1
2023-01-26T15:13:00.405Z,16941.5
2023-01-26T15:14:00.396Z,16597.0
2023-01-26T15:16:00.388Z,15884.5
2023-01-26T15:17:00.442Z,15530.1
2023-01-26T15:18:00.485Z,15175.7
2023-01-26T15:19:00.369Z,14821.3
2023-01-26T15:21:00.589Z,14132.9
2023-01-26T15:22:00.655Z,13786.1
2023-01-26T15:23:00.394Z,13439.3
2023-01-26T15:24:00.401Z,13092.5
2023-01-26T15:26:00.542Z,12381.0
2023-01-26T15:27:00.392Z,12026.2
2023-01-26T15:28:00.492Z,11671.4
2023-01-26T15:29:00.406Z,11316.6
2023-01-26T15:30:06.303Z,11029.7
2023-01-26T15:31:00.493Z,10742.7
2023-01-26T15:32:00.526Z,10381.3
2023-01-26T15:33:00.409Z,10019.9
2023-01-26T15:34:00.397Z,9658.5
2023-01-26T15:35:07.677Z,9252.0
2023-01-26T15:36:00.381Z,8845.5
2023-01-26T15:37:00.657Z,8419.6
2023-01-26T15:38:00.456Z,7993.7
2023-01-26T15:39:00.381Z,7567.9
2023-01-26T15:40:02.473Z,7158.2
2023-01-26T15:41:00.384Z,6748.5
2023-01-26T15:42:00.449Z,6346.2
2023-01-26T15:43:00.389Z,5943.9
2023-01-26T15:44:00.415Z,5541.5
2023-01-26T15:45:01.877Z,5110.4
2023-01-26T15:46:00.401Z,4679.3
2023-01-26T15:47:00.657Z,4345.7
2023-01-26T15:48:00.397Z,4012.2
2023-01-26T15:49:00.383Z,3678.7
2023-01-26T15:50:28.337Z,3418.8
2023-01-26T15:51:00.451Z,3158.9
2023-01-26T15:52:00.382Z,2949.9
2023-01-26T15:53:00.470Z,2740.8
2023-01-26T15:54:00.388Z,2531.7
2023-01-26T15:55:00.899Z,2356.1
2023-01-26T15:56:00.389Z,2180.5
2023-01-26T15:57:00.691Z,2028.1
2023-01-26T15:58:00.424Z,1875.7
2023-01-26T15:59:00.387Z,1723.3
2023-01-26T16:01:00.496Z,1447.3
2023-01-26T16:02:00.441Z,1335.4
2023-01-26T16:03:00.456Z,1223.5
2023-01-26T16:04:00.682Z,1111.5
2023-01-26T16:05:00.892Z,1011.5
2023-01-26T16:06:00.418Z,911.5
2023-01-26T16:07:00.461Z,831.0
2023-01-26T16:08:00.399Z,750.5
2023-01-26T16:09:00.401Z,669.9
2023-01-26T16:11:00.433Z,534.2
2023-01-26T16:12:00.394Z,484.5
2023-01-26T16:13:00.404Z,434.9
2023-01-26T16:14:03.478Z,385.2
2023-01-26T16:15:01.296Z,341.6
2023-01-26T16:16:00.532Z,298.0
2023-01-26T16:17:00.692Z,263.9
2023-01-26T16:18:00.397Z,229.9
2023-01-26T16:19:00.428Z,195.8
2023-01-26T16:21:00.700Z,143.1
2023-01-26T16:22:00.403Z,126.1
2023-01-26T16:23:00.404Z,109.0
2023-01-26T16:24:00.451Z,91.9
2023-01-26T16:26:00.811Z,67.7
2023-01-26T16:27:00.443Z,59.0
2023-01-26T16:28:00.401Z,50.3
2023-01-26T16:29:00.527Z,41.7
2023-01-26T16:31:02.489Z,30.1
2023-01-26T16:32:00.505Z,26.2
2023-01-26T16:33:00.399Z,22.3
2023-01-26T16:34:00.409Z,18.5
2023-01-26T16:36:00.713Z,13.4
2023-01-26T16:37:00.412Z,11.5
2023-01-26T16:38:00.412Z,9.5
2023-01-26T16:39:00.407Z,7.6
2023-01-26T16:40:01.157Z,6.4
2023-01-26T16:41:00.440Z,5.2
2023-01-26T16:42:00.424Z,4.5
2023-01-26T16:43:01.435Z,3.9
2023-01-26T16:44:00.407Z,3.2
2023-01-26T16:46:00.558Z,2.4
2023-01-26T16:47:00.406Z,2.1
2023-01-26T16:48:01.531Z,1.9
2023-01-26T16:49:00.414Z,1.6
2023-01-26T16:50:00.624Z,1.4
2023-01-26T16:51:00.453Z,1.2
2023-01-26T16:52:00.414Z,1.1
2023-01-26T16:53:00.406Z,1.0
2023-01-26T16:54:00.441Z,0.9
2023-01-26T16:55:00.642Z,0.8
2023-01-26T16:56:00.442Z,0.7
2023-01-26T16:58:00.433Z,0.6
2023-01-26T16:59:00.414Z,0.5
2023-01-26T17:01:00.527Z,0.4
2023-01-26T17:02:00.448Z,0.3
2023-01-26T17:04:00.559Z,0.2
2023-01-26T17:05:01.337Z,0.1
